sensor_id;sensor_type;location;lat;lon;timestamp;pressure;altitude;pressure_sealevel;temperature
53412;BMP280;39307;52.870;13.660;2023-08-30T00:00:57;100148.00;;;14.50
53412;BMP280;39307;52.870;13.660;2023-08-30T00:03:24;100144.31;;;14.51
53412;BMP280;39307;52.870;13.660;2023-08-30T00:05:50;100139.84;;;14.52
53412;BMP280;39307;52.870;13.660;2023-08-30T00:08:16;100134.59;;;14.52
53412;BMP280;39307;52.870;13.660;2023-08-30T00:10:42;100132.19;;;14.50
53412;BMP280;39307;52.870;13.660;2023-08-30T00:13:09;100118.00;;;14.51
53412;BMP280;39307;52.870;13.660;2023-08-30T00:15:35;100128.75;;;14.50
53412;BMP280;39307;52.870;13.660;2023-08-30T00:18:01;100130.34;;;14.51
53412;BMP280;39307;52.870;13.660;2023-08-30T00:20:27;100138.06;;;14.52
53412;BMP280;39307;52.870;13.660;2023-08-30T00:22:54;100142.28;;;14.53
53412;BMP280;39307;52.870;13.660;2023-08-30T00:25:20;100140.44;;;14.54
53412;BMP280;39307;52.870;13.660;2023-08-30T00:27:46;100137.03;;;14.53
53412;BMP280;39307;52.870;13.660;2023-08-30T00:30:14;100139.66;;;14.53
53412;BMP280;39307;52.870;13.660;2023-08-30T00:32:40;100142.50;;;14.52
53412;BMP280;39307;52.870;13.660;2023-08-30T00:35:06;100142.28;;;14.53
53412;BMP280;39307;52.870;13.660;2023-08-30T00:37:33;100141.50;;;14.53
53412;BMP280;39307;52.870;13.660;2023-08-30T00:39:59;100138.06;;;14.52
53412;BMP280;39307;52.870;13.660;2023-08-30T00:42:25;100139.66;;;14.53
53412;BMP280;39307;52.870;13.660;2023-08-30T00:44:52;100136.22;;;14.53
53412;BMP280;39307;52.870;13.660;2023-08-30T00:47:18;100142.28;;;14.53
53412;BMP280;39307;52.870;13.660;2023-08-30T00:49:44;100145.72;;;14.54
53412;BMP280;39307;52.870;13.660;2023-08-30T00:52:11;100141.25;;;14.54
53412;BMP280;39307;52.870;13.660;2023-08-30T00:54:38;100129.91;;;14.54
53412;BMP280;39307;52.870;13.660;2023-08-30T00:57:04;100143.88;;;14.54
53412;BMP280;39307;52.870;13.660;2023-08-30T00:59:32;100132.34;;;14.55
53412;BMP280;39307;52.870;13.660;2023-08-30T01:01:59;100138.63;;;14.54
53412;BMP280;39307;52.870;13.660;2023-08-30T01:04:26;100129.91;;;14.54
53412;BMP280;39307;52.870;13.660;2023-08-30T01:06:52;100134.97;;;14.55
53412;BMP280;39307;52.870;13.660;2023-08-30T01:09:19;100127.06;;;14.55
53412;BMP280;39307;52.870;13.660;2023-08-30T01:14:44;100119.38;;;14.54
53412;BMP280;39307;52.870;13.660;2023-08-30T01:17:14;100129.13;;;14.53
53412;BMP280;39307;52.870;13.660;2023-08-30T01:20:06;100131.16;;;14.51
53412;BMP280;39307;52.870;13.660;2023-08-30T01:23:03;100136.41;;;14.51
53412;BMP280;39307;52.870;13.660;2023-08-30T01:28:27;100122.47;;;14.51
53412;BMP280;39307;52.870;13.660;2023-08-30T01:30:55;100136.66;;;14.50
53412;BMP280;39307;52.870;13.660;2023-08-30T01:33:24;100135.03;;;14.49
53412;BMP280;39307;52.870;13.660;2023-08-30T01:35:51;100138.50;;;14.49
53412;BMP280;39307;52.870;13.660;2023-08-30T01:38:19;100146.41;;;14.49
53412;BMP280;39307;52.870;13.660;2023-08-30T01:40:46;100152.66;;;14.48
53412;BMP280;39307;52.870;13.660;2023-08-30T01:43:13;100149.47;;;14.46
53412;BMP280;39307;52.870;13.660;2023-08-30T01:45:43;100154.75;;;14.46
53412;BMP280;39307;52.870;13.660;2023-08-30T01:48:13;100162.84;;;14.45
53412;BMP280;39307;52.870;13.660;2023-08-30T01:50:40;100160.44;;;14.43
53412;BMP280;39307;52.870;13.660;2023-08-30T01:53:07;100160.44;;;14.43
53412;BMP280;39307;52.870;13.660;2023-08-30T01:55:35;100164.69;;;14.44
53412;BMP280;39307;52.870;13.660;2023-08-30T01:58:03;100163.66;;;14.45
53412;BMP280;39307;52.870;13.660;2023-08-30T02:00:30;100149.69;;;14.45
53412;BMP280;39307;52.870;13.660;2023-08-30T02:02:56;100144.41;;;14.45
53412;BMP280;39307;52.870;13.660;2023-08-30T02:05:23;100138.09;;;14.46
53412;BMP280;39307;52.870;13.660;2023-08-30T02:08:19;100129.41;;;14.45
53412;BMP280;39307;52.870;13.660;2023-08-30T02:10:56;100125.19;;;14.44
53412;BMP280;39307;52.870;13.660;2023-08-30T02:13:27;100131.69;;;14.42
53412;BMP280;39307;52.870;13.660;2023-08-30T02:16:00;100144.50;;;14.39
53412;BMP280;39307;52.870;13.660;2023-08-30T02:18:27;100153.41;;;14.38
53412;BMP280;39307;52.870;13.660;2023-08-30T02:20:56;100149.16;;;14.37
53412;BMP280;39307;52.870;13.660;2023-08-30T02:23:24;100144.72;;;14.37
53412;BMP280;39307;52.870;13.660;2023-08-30T02:25:50;100145.72;;;14.36
53412;BMP280;39307;52.870;13.660;2023-08-30T02:28:17;100136.22;;;14.35
53412;BMP280;39307;52.870;13.660;2023-08-30T02:30:43;100127.28;;;14.36
53412;BMP280;39307;52.870;13.660;2023-08-30T02:33:10;100125.47;;;14.37
53412;BMP280;39307;52.870;13.660;2023-08-30T02:35:36;100125.47;;;14.37
53412;BMP280;39307;52.870;13.660;2023-08-30T02:38:02;100132.56;;;14.36
53412;BMP280;39307;52.870;13.660;2023-08-30T02:40:28;100119.41;;;14.36
53412;BMP280;39307;52.870;13.660;2023-08-30T02:42:55;100124.91;;;14.35
53412;BMP280;39307;52.870;13.660;2023-08-30T02:45:21;100117.78;;;14.35
53412;BMP280;39307;52.870;13.660;2023-08-30T02:47:48;100124.09;;;14.34
53412;BMP280;39307;52.870;13.660;2023-08-30T02:50:14;100112.19;;;14.32
53412;BMP280;39307;52.870;13.660;2023-08-30T02:52:40;100113.78;;;14.33
53412;BMP280;39307;52.870;13.660;2023-08-30T02:55:07;100105.88;;;14.33
53412;BMP280;39307;52.870;13.660;2023-08-30T02:57:33;100111.38;;;14.31
53412;BMP280;39307;52.870;13.660;2023-08-30T03:00:00;100106.31;;;14.30
53412;BMP280;39307;52.870;13.660;2023-08-30T03:02:26;100109.53;;;14.32
53412;BMP280;39307;52.870;13.660;2023-08-30T03:04:52;100106.13;;;14.31
53412;BMP280;39307;52.870;13.660;2023-08-30T03:07:18;100105.28;;;14.31
53412;BMP280;39307;52.870;13.660;2023-08-30T03:09:44;100110.53;;;14.31
53412;BMP280;39307;52.870;13.660;2023-08-30T03:12:11;100103.69;;;14.30
53412;BMP280;39307;52.870;13.660;2023-08-30T03:14:37;100102.66;;;14.31
53412;BMP280;39307;52.870;13.660;2023-08-30T03:17:03;100100.25;;;14.29
53412;BMP280;39307;52.870;13.660;2023-08-30T03:19:29;100095.78;;;14.30
53412;BMP280;39307;52.870;13.660;2023-08-30T03:21:56;100096.03;;;14.28
53412;BMP280;39307;52.870;13.660;2023-08-30T03:24:22;100093.38;;;14.28
53412;BMP280;39307;52.870;13.660;2023-08-30T03:26:48;100097.81;;;14.28
53412;BMP280;39307;52.870;13.660;2023-08-30T03:29:14;100097.81;;;14.28
53412;BMP280;39307;52.870;13.660;2023-08-30T03:31:40;100104.91;;;14.27
53412;BMP280;39307;52.870;13.660;2023-08-30T03:34:07;100104.34;;;14.25
53412;BMP280;39307;52.870;13.660;2023-08-30T03:36:33;100118.31;;;14.26
53412;BMP280;39307;52.870;13.660;2023-08-30T03:38:59;100112.03;;;14.27
53412;BMP280;39307;52.870;13.660;2023-08-30T03:41:25;100119.91;;;14.27
53412;BMP280;39307;52.870;13.660;2023-08-30T03:43:52;100121.50;;;14.28
53412;BMP280;39307;52.870;13.660;2023-08-30T03:46:18;100124.16;;;14.28
53412;BMP280;39307;52.870;13.660;2023-08-30T03:48:44;100119.13;;;14.26
53412;BMP280;39307;52.870;13.660;2023-08-30T03:51:10;100128.63;;;14.27
53412;BMP280;39307;52.870;13.660;2023-08-30T03:53:36;100126.78;;;14.28
53412;BMP280;39307;52.870;13.660;2023-08-30T03:56:03;100132.03;;;14.28
53412;BMP280;39307;52.870;13.660;2023-08-30T03:58:29;100129.22;;;14.29
53412;BMP280;39307;52.870;13.660;2023-08-30T04:00:56;100123.72;;;14.31
53412;BMP280;39307;52.870;13.660;2023-08-30T04:03:23;100127.38;;;14.30
53412;BMP280;39307;52.870;13.660;2023-08-30T04:05:55;100128.19;;;14.30
53412;BMP280;39307;52.870;13.660;2023-08-30T04:08:22;100131.59;;;14.31
53412;BMP280;39307;52.870;13.660;2023-08-30T04:10:48;100132.44;;;14.31
53412;BMP280;39307;52.870;13.660;2023-08-30T04:13:14;100127.97;;;14.32
53412;BMP280;39307;52.870;13.660;2023-08-30T04:15:40;100127.97;;;14.32
53412;BMP280;39307;52.870;13.660;2023-08-30T04:18:07;100119.84;;;14.33
53412;BMP280;39307;52.870;13.660;2023-08-30T04:20:34;100119.84;;;14.33
53412;BMP280;39307;52.870;13.660;2023-08-30T04:23:01;100124.31;;;14.33
53412;BMP280;39307;52.870;13.660;2023-08-30T04:25:28;100120.63;;;14.34
53412;BMP280;39307;52.870;13.660;2023-08-30T04:27:54;100123.28;;;14.34
53412;BMP280;39307;52.870;13.660;2023-08-30T04:30:21;100114.38;;;14.35
53412;BMP280;39307;52.870;13.660;2023-08-30T04:32:47;100117.78;;;14.35
53412;BMP280;39307;52.870;13.660;2023-08-30T04:35:14;100120.63;;;14.34
53412;BMP280;39307;52.870;13.660;2023-08-30T04:37:40;100127.53;;;14.35
53412;BMP280;39307;52.870;13.660;2023-08-30T04:40:07;100130.38;;;14.33
53412;BMP280;39307;52.870;13.660;2023-08-30T04:42:34;100119.84;;;14.33
53412;BMP280;39307;52.870;13.660;2023-08-30T04:45:00;100124.09;;;14.34
53412;BMP280;39307;52.870;13.660;2023-08-30T04:47:28;100131.16;;;14.34
53412;BMP280;39307;52.870;13.660;2023-08-30T04:49:54;100132.00;;;14.34
53412;BMP280;39307;52.870;13.660;2023-08-30T04:52:20;100133.00;;;14.33
53412;BMP280;39307;52.870;13.660;2023-08-30T04:54:47;100133.00;;;14.33
53412;BMP280;39307;52.870;13.660;2023-08-30T04:57:13;100133.59;;;14.35
53412;BMP280;39307;52.870;13.660;2023-08-30T04:59:39;100139.31;;;14.32
53412;BMP280;39307;52.870;13.660;2023-08-30T05:02:06;100141.13;;;14.32
53412;BMP280;39307;52.870;13.660;2023-08-30T05:04:32;100137.72;;;14.31
53412;BMP280;39307;52.870;13.660;2023-08-30T05:06:59;100147.19;;;14.32
53412;BMP280;39307;52.870;13.660;2023-08-30T05:09:25;100140.34;;;14.31
53412;BMP280;39307;52.870;13.660;2023-08-30T05:11:52;100138.28;;;14.33
53412;BMP280;39307;52.870;13.660;2023-08-30T05:14:18;100143.31;;;14.35
53412;BMP280;39307;52.870;13.660;2023-08-30T05:16:45;100139.66;;;14.36
53412;BMP280;39307;52.870;13.660;2023-08-30T05:19:11;100143.91;;;14.37
53412;BMP280;39307;52.870;13.660;2023-08-30T05:21:37;100135.00;;;14.38
53412;BMP280;39307;52.870;13.660;2023-08-30T05:24:04;100129.72;;;14.38
53412;BMP280;39307;52.870;13.660;2023-08-30T05:26:30;100127.09;;;14.38
53412;BMP280;39307;52.870;13.660;2023-08-30T05:28:57;100128.69;;;14.39
53412;BMP280;39307;52.870;13.660;2023-08-30T05:31:23;100129.50;;;14.39
53412;BMP280;39307;52.870;13.660;2023-08-30T05:33:49;100135.56;;;14.40
53412;BMP280;39307;52.870;13.660;2023-08-30T05:36:15;100131.31;;;14.39
53412;BMP280;39307;52.870;13.660;2023-08-30T05:38:41;100136.34;;;14.40
53412;BMP280;39307;52.870;13.660;2023-08-30T05:41:08;100134.56;;;14.41
53412;BMP280;39307;52.870;13.660;2023-08-30T05:43:34;100132.47;;;14.43
53412;BMP280;39307;52.870;13.660;2023-08-30T05:46:00;100132.28;;;14.44
53412;BMP280;39307;52.870;13.660;2023-08-30T05:48:27;100132.63;;;14.47
53412;BMP280;39307;52.870;13.660;2023-08-30T05:50:53;100131.59;;;14.48
53412;BMP280;39307;52.870;13.660;2023-08-30T05:53:19;100130.59;;;14.49
53412;BMP280;39307;52.870;13.660;2023-08-30T05:55:46;100130.59;;;14.49
53412;BMP280;39307;52.870;13.660;2023-08-30T05:58:12;100139.28;;;14.50
53412;BMP280;39307;52.870;13.660;2023-08-30T06:00:38;100126.47;;;14.53
53412;BMP280;39307;52.870;13.660;2023-08-30T06:03:04;100127.06;;;14.55
53412;BMP280;39307;52.870;13.660;2023-08-30T06:05:31;100126.84;;;14.57
53412;BMP280;39307;52.870;13.660;2023-08-30T06:07:57;100144.03;;;14.59
53412;BMP280;39307;52.870;13.660;2023-08-30T06:10:23;100134.88;;;14.62
53412;BMP280;39307;52.870;13.660;2023-08-30T06:12:50;100139.72;;;14.65
53412;BMP280;39307;52.870;13.660;2023-08-30T06:15:16;100139.03;;;14.69
53412;BMP280;39307;52.870;13.660;2023-08-30T06:17:42;100140.78;;;14.75
53412;BMP280;39307;52.870;13.660;2023-08-30T06:20:08;100125.31;;;14.78
53412;BMP280;39307;52.870;13.660;2023-08-30T06:22:35;100135.78;;;14.85
53412;BMP280;39307;52.870;13.660;2023-08-30T06:25:01;100128.59;;;14.92
53412;BMP280;39307;52.870;13.660;2023-08-30T06:27:27;100131.94;;;14.99
53412;BMP280;39307;52.870;13.660;2023-08-30T06:29:53;100133.03;;;15.09
53412;BMP280;39307;52.870;13.660;2023-08-30T06:32:19;100125.38;;;15.19
53412;BMP280;39307;52.870;13.660;2023-08-30T06:34:46;100126.91;;;15.26
53412;BMP280;39307;52.870;13.660;2023-08-30T06:37:12;100127.59;;;15.33
53412;BMP280;39307;52.870;13.660;2023-08-30T06:39:38;100130.69;;;15.41
53412;BMP280;39307;52.870;13.660;2023-08-30T06:42:05;100127.16;;;15.47
53412;BMP280;39307;52.870;13.660;2023-08-30T06:44:31;100132.53;;;15.52
53412;BMP280;39307;52.870;13.660;2023-08-30T06:46:57;100135.88;;;15.59
53412;BMP280;39307;52.870;13.660;2023-08-30T06:49:24;100135.19;;;15.63
53412;BMP280;39307;52.870;13.660;2023-08-30T06:51:50;100140.59;;;15.68
53412;BMP280;39307;52.870;13.660;2023-08-30T06:54:16;100131.97;;;15.73
53412;BMP280;39307;52.870;13.660;2023-08-30T06:56:58;100135.34;;;15.80
53412;BMP280;39307;52.870;13.660;2023-08-30T06:59:25;100128.88;;;15.87
53412;BMP280;39307;52.870;13.660;2023-08-30T07:01:51;100132.44;;;15.92
53412;BMP280;39307;52.870;13.660;2023-08-30T07:04:17;100117.53;;;15.98
53412;BMP280;39307;52.870;13.660;2023-08-30T07:06:44;100122.91;;;16.03
53412;BMP280;39307;52.870;13.660;2023-08-30T07:09:10;100127.25;;;16.09
53412;BMP280;39307;52.870;13.660;2023-08-30T07:11:37;100131.50;;;16.10
53412;BMP280;39307;52.870;13.660;2023-08-30T07:14:04;100131.06;;;16.13
53412;BMP280;39307;52.870;13.660;2023-08-30T07:16:31;100125.31;;;16.16
53412;BMP280;39307;52.870;13.660;2023-08-30T07:18:58;100119.81;;;16.17
53412;BMP280;39307;52.870;13.660;2023-08-30T07:21:24;100125.09;;;16.17
53412;BMP280;39307;52.870;13.660;2023-08-30T07:23:50;100125.19;;;16.22
53412;BMP280;39307;52.870;13.660;2023-08-30T07:26:17;100122.44;;;16.28
53412;BMP280;39307;52.870;13.660;2023-08-30T07:28:44;100123.13;;;16.35
53412;BMP280;39307;52.870;13.660;2023-08-30T07:31:10;100129.53;;;16.39
53412;BMP280;39307;52.870;13.660;2023-08-30T07:33:36;100118.97;;;16.39
53412;BMP280;39307;52.870;13.660;2023-08-30T07:36:02;100120.00;;;16.38
53412;BMP280;39307;52.870;13.660;2023-08-30T07:38:30;100111.84;;;16.40
53412;BMP280;39307;52.870;13.660;2023-08-30T07:40:56;100113.47;;;16.41
53412;BMP280;39307;52.870;13.660;2023-08-30T07:43:22;100122.72;;;16.43
53412;BMP280;39307;52.870;13.660;2023-08-30T07:45:49;100117.22;;;16.45
53412;BMP280;39307;52.870;13.660;2023-08-30T07:48:15;100123.91;;;16.47
53412;BMP280;39307;52.870;13.660;2023-08-30T07:50:41;100121.81;;;16.49
53412;BMP280;39307;52.870;13.660;2023-08-30T07:53:07;100123.97;;;16.52
53412;BMP280;39307;52.870;13.660;2023-08-30T07:55:34;100125.03;;;16.51
53412;BMP280;39307;52.870;13.660;2023-08-30T07:58:00;100131.69;;;16.53
53412;BMP280;39307;52.870;13.660;2023-08-30T08:00:26;100129.84;;;16.54
53412;BMP280;39307;52.870;13.660;2023-08-30T08:02:52;100123.84;;;16.58
53412;BMP280;39307;52.870;13.660;2023-08-30T08:05:19;100126.59;;;16.63
53412;BMP280;39307;52.870;13.660;2023-08-30T08:07:45;100120.84;;;16.66
53412;BMP280;39307;52.870;13.660;2023-08-30T08:10:11;100130.94;;;16.69
53412;BMP280;39307;52.870;13.660;2023-08-30T08:12:37;100129.00;;;16.65
53412;BMP280;39307;52.870;13.660;2023-08-30T08:15:04;100131.66;;;16.65
53412;BMP280;39307;52.870;13.660;2023-08-30T08:17:30;100124.38;;;16.72
53412;BMP280;39307;52.870;13.660;2023-08-30T08:19:57;100136.66;;;16.77
53412;BMP280;39307;52.870;13.660;2023-08-30T08:22:23;100130.31;;;16.78
53412;BMP280;39307;52.870;13.660;2023-08-30T08:24:50;100127.47;;;16.80
53412;BMP280;39307;52.870;13.660;2023-08-30T08:27:17;100130.66;;;16.82
53412;BMP280;39307;52.870;13.660;2023-08-30T08:29:43;100134.91;;;16.83
53412;BMP280;39307;52.870;13.660;2023-08-30T08:32:10;100132.59;;;16.86
53412;BMP280;39307;52.870;13.660;2023-08-30T08:34:36;100130.28;;;16.90
53412;BMP280;39307;52.870;13.660;2023-08-30T08:37:03;100125.00;;;16.90
53412;BMP280;39307;52.870;13.660;2023-08-30T08:39:30;100124.88;;;16.85
53412;BMP280;39307;52.870;13.660;2023-08-30T08:41:59;100126.84;;;16.89
53412;BMP280;39307;52.870;13.660;2023-08-30T08:44:31;100133.09;;;17.00
53412;BMP280;39307;52.870;13.660;2023-08-30T08:46:59;100129.28;;;17.07
53412;BMP280;39307;52.870;13.660;2023-08-30T08:49:26;100119.59;;;17.12
53412;BMP280;39307;52.870;13.660;2023-08-30T08:51:53;100122.25;;;17.12
53412;BMP280;39307;52.870;13.660;2023-08-30T08:54:19;100122.34;;;17.17
53412;BMP280;39307;52.870;13.660;2023-08-30T08:56:46;100117.00;;;17.29
53412;BMP280;39307;52.870;13.660;2023-08-30T08:59:12;100119.31;;;17.41
53412;BMP280;39307;52.870;13.660;2023-08-30T09:01:39;100114.09;;;17.30
53412;BMP280;39307;52.870;13.660;2023-08-30T09:04:09;100107.06;;;17.35
53412;BMP280;39307;52.870;13.660;2023-08-30T09:06:37;100102.66;;;17.41
53412;BMP280;39307;52.870;13.660;2023-08-30T09:09:04;100109.38;;;17.48
53412;BMP280;39307;52.870;13.660;2023-08-30T09:11:31;100099.44;;;17.39
53412;BMP280;39307;52.870;13.660;2023-08-30T09:13:57;100094.47;;;17.42
53412;BMP280;39307;52.870;13.660;2023-08-30T09:16:24;100094.06;;;17.50
53412;BMP280;39307;52.870;13.660;2023-08-30T09:19:00;100094.53;;;17.63
53412;BMP280;39307;52.870;13.660;2023-08-30T09:21:27;100101.28;;;17.71
53412;BMP280;39307;52.870;13.660;2023-08-30T09:24:03;100090.25;;;17.79
53412;BMP280;39307;52.870;13.660;2023-08-30T09:26:30;100089.38;;;17.90
53412;BMP280;39307;52.870;13.660;2023-08-30T09:29:08;100095.28;;;17.96
53412;BMP280;39307;52.870;13.660;2023-08-30T09:31:38;100097.06;;;18.07
53412;BMP280;39307;52.870;13.660;2023-08-30T09:34:05;100093.47;;;18.18
53412;BMP280;39307;52.870;13.660;2023-08-30T09:36:39;100089.34;;;18.27
53412;BMP280;39307;52.870;13.660;2023-08-30T09:39:11;100093.94;;;18.31
53412;BMP280;39307;52.870;13.660;2023-08-30T09:41:42;100092.59;;;18.13
53412;BMP280;39307;52.870;13.660;2023-08-30T09:44:16;100087.88;;;18.15
53412;BMP280;39307;52.870;13.660;2023-08-30T09:46:46;100078.19;;;18.25
53412;BMP280;39307;52.870;13.660;2023-08-30T09:49:23;100089.44;;;18.32
53412;BMP280;39307;52.870;13.660;2023-08-30T09:51:51;100072.56;;;18.43
53412;BMP280;39307;52.870;13.660;2023-08-30T09:54:19;100083.53;;;18.51
53412;BMP280;39307;52.870;13.660;2023-08-30T09:56:46;100077.75;;;18.54
53412;BMP280;39307;52.870;13.660;2023-08-30T09:59:14;100076.66;;;18.50
53412;BMP280;39307;52.870;13.660;2023-08-30T10:01:41;100079.50;;;18.44
53412;BMP280;39307;52.870;13.660;2023-08-30T10:04:08;100082.19;;;18.49
53412;BMP280;39307;52.870;13.660;2023-08-30T10:06:35;100090.44;;;18.52
53412;BMP280;39307;52.870;13.660;2023-08-30T10:09:03;100090.69;;;18.50
53412;BMP280;39307;52.870;13.660;2023-08-30T10:11:37;100085.09;;;18.47
53412;BMP280;39307;52.870;13.660;2023-08-30T10:14:04;100079.31;;;18.50
53412;BMP280;39307;52.870;13.660;2023-08-30T10:16:44;100077.19;;;18.52
53412;BMP280;39307;52.870;13.660;2023-08-30T10:19:23;100081.50;;;18.58
53412;BMP280;39307;52.870;13.660;2023-08-30T10:22:05;100072.75;;;18.57
53412;BMP280;39307;52.870;13.660;2023-08-30T10:24:36;100081.63;;;18.68
53412;BMP280;39307;52.870;13.660;2023-08-30T10:27:06;100073.81;;;18.82
53412;BMP280;39307;52.870;13.660;2023-08-30T10:29:35;100074.25;;;18.96
53412;BMP280;39307;52.870;13.660;2023-08-30T10:32:04;100064.22;;;19.03
53412;BMP280;39307;52.870;13.660;2023-08-30T10:34:35;100066.44;;;19.10
53412;BMP280;39307;52.870;13.660;2023-08-30T10:37:05;100072.88;;;19.19
53412;BMP280;39307;52.870;13.660;2023-08-30T10:39:40;100079.78;;;19.20
53412;BMP280;39307;52.870;13.660;2023-08-30T10:42:14;100075.59;;;19.29
53412;BMP280;39307;52.870;13.660;2023-08-30T10:44:58;100076.81;;;19.48
53412;BMP280;39307;52.870;13.660;2023-08-30T10:47:26;100073.66;;;19.51
53412;BMP280;39307;52.870;13.660;2023-08-30T10:49:57;100073.19;;;19.59
53412;BMP280;39307;52.870;13.660;2023-08-30T10:52:24;100076.19;;;19.72
53412;BMP280;39307;52.870;13.660;2023-08-30T10:54:51;100070.72;;;19.83
53412;BMP280;39307;52.870;13.660;2023-08-30T10:57:24;100071.84;;;19.97
53412;BMP280;39307;52.870;13.660;2023-08-30T11:00:08;100069.19;;;19.97
53412;BMP280;39307;52.870;13.660;2023-08-30T11:02:36;100072.63;;;19.97
53412;BMP280;39307;52.870;13.660;2023-08-30T11:05:04;100071.59;;;19.98
53412;BMP280;39307;52.870;13.660;2023-08-30T11:07:31;100072.13;;;20.00
53412;BMP280;39307;52.870;13.660;2023-08-30T11:09:58;100073.75;;;20.06
53412;BMP280;39307;52.870;13.660;2023-08-30T11:12:25;100066.63;;;20.17
53412;BMP280;39307;52.870;13.660;2023-08-30T11:14:54;100065.59;;;20.27
53412;BMP280;39307;52.870;13.660;2023-08-30T11:17:20;100060.56;;;20.31
53412;BMP280;39307;52.870;13.660;2023-08-30T11:19:50;100061.91;;;20.28
53412;BMP280;39307;52.870;13.660;2023-08-30T11:22:17;100057.91;;;20.26
53412;BMP280;39307;52.870;13.660;2023-08-30T11:24:45;100057.84;;;20.16
53412;BMP280;39307;52.870;13.660;2023-08-30T11:27:13;100065.53;;;20.08
53412;BMP280;39307;52.870;13.660;2023-08-30T11:29:43;100060.13;;;19.98
53412;BMP280;39307;52.870;13.660;2023-08-30T11:32:09;100058.03;;;19.95
53412;BMP280;39307;52.870;13.660;2023-08-30T11:34:36;100061.97;;;19.88
53412;BMP280;39307;52.870;13.660;2023-08-30T11:37:02;100052.66;;;19.85
53412;BMP280;39307;52.870;13.660;2023-08-30T11:39:29;100056.38;;;19.84
53412;BMP280;39307;52.870;13.660;2023-08-30T11:41:56;100049.75;;;19.87
53412;BMP280;39307;52.870;13.660;2023-08-30T11:44:29;100053.72;;;19.84
53412;BMP280;39307;52.870;13.660;2023-08-30T11:46:59;100058.53;;;19.92
53412;BMP280;39307;52.870;13.660;2023-08-30T11:49:30;100059.59;;;19.91
53412;BMP280;39307;52.870;13.660;2023-08-30T11:51:56;100054.31;;;19.96
53412;BMP280;39307;52.870;13.660;2023-08-30T11:54:24;100060.13;;;19.93
53412;BMP280;39307;52.870;13.660;2023-08-30T11:56:51;100055.09;;;19.96
53412;BMP280;39307;52.870;13.660;2023-08-30T11:59:21;100043.16;;;19.99
53412;BMP280;39307;52.870;13.660;2023-08-30T12:01:53;100047.97;;;20.02
53412;BMP280;39307;52.870;13.660;2023-08-30T12:04:19;100049.31;;;20.09
53412;BMP280;39307;52.870;13.660;2023-08-30T12:06:55;100043.25;;;20.14
53412;BMP280;39307;52.870;13.660;2023-08-30T12:09:21;100041.38;;;20.19
53412;BMP280;39307;52.870;13.660;2023-08-30T12:11:48;100042.75;;;20.26
53412;BMP280;39307;52.870;13.660;2023-08-30T12:14:15;100041.97;;;20.36
53412;BMP280;39307;52.870;13.660;2023-08-30T12:16:41;100040.16;;;20.41
53412;BMP280;39307;52.870;13.660;2023-08-30T12:19:11;100042.00;;;20.41
53412;BMP280;39307;52.870;13.660;2023-08-30T12:21:44;100043.34;;;20.48
53412;BMP280;39307;52.870;13.660;2023-08-30T12:24:13;100038.88;;;20.58
53412;BMP280;39307;52.870;13.660;2023-08-30T12:26:40;100044.22;;;20.68
53412;BMP280;39307;52.870;13.660;2023-08-30T12:29:06;100040.25;;;20.76
53412;BMP280;39307;52.870;13.660;2023-08-30T12:31:33;100043.69;;;20.76
53412;BMP280;39307;52.870;13.660;2023-08-30T12:33:59;100042.66;;;20.77
53412;BMP280;39307;52.870;13.660;2023-08-30T12:36:25;100044.78;;;20.80
53412;BMP280;39307;52.870;13.660;2023-08-30T12:38:52;100040.78;;;20.78
53412;BMP280;39307;52.870;13.660;2023-08-30T12:41:18;100037.59;;;20.76
53412;BMP280;39307;52.870;13.660;2023-08-30T12:43:44;100038.66;;;20.75
53412;BMP280;39307;52.870;13.660;2023-08-30T12:46:10;100032.81;;;20.78
53412;BMP280;39307;52.870;13.660;2023-08-30T12:48:37;100030.66;;;20.80
53412;BMP280;39307;52.870;13.660;2023-08-30T12:51:03;100029.59;;;20.85
53412;BMP280;39307;52.870;13.660;2023-08-30T12:53:30;100030.69;;;20.89
53412;BMP280;39307;52.870;13.660;2023-08-30T12:55:56;100027.50;;;20.97
53412;BMP280;39307;52.870;13.660;2023-08-30T12:58:22;100025.09;;;21.06
53412;BMP280;39307;52.870;13.660;2023-08-30T13:00:49;100024.56;;;21.04
53412;BMP280;39307;52.870;13.660;2023-08-30T13:03:15;100019.25;;;20.94
53412;BMP280;39307;52.870;13.660;2023-08-30T13:05:41;100019.75;;;20.86
53412;BMP280;39307;52.870;13.660;2023-08-30T13:08:11;100028.56;;;20.86
53412;BMP280;39307;52.870;13.660;2023-08-30T13:10:38;100018.97;;;20.81
53412;BMP280;39307;52.870;13.660;2023-08-30T13:13:04;100022.69;;;20.70
53412;BMP280;39307;52.870;13.660;2023-08-30T13:15:30;100021.88;;;20.64
53412;BMP280;39307;52.870;13.660;2023-08-30T13:17:57;100013.91;;;20.59
53412;BMP280;39307;52.870;13.660;2023-08-30T13:20:23;100015.75;;;20.54
53412;BMP280;39307;52.870;13.660;2023-08-30T13:22:49;100013.84;;;20.45
53412;BMP280;39307;52.870;13.660;2023-08-30T13:25:16;100013.81;;;20.40
53412;BMP280;39307;52.870;13.660;2023-08-30T13:27:42;100017.78;;;20.32
53412;BMP280;39307;52.870;13.660;2023-08-30T13:30:08;100010.06;;;20.31
53412;BMP280;39307;52.870;13.660;2023-08-30T13:32:35;100013.25;;;20.33
53412;BMP280;39307;52.870;13.660;2023-08-30T13:35:01;100010.34;;;20.34
53412;BMP280;39307;52.870;13.660;2023-08-30T13:37:27;100012.19;;;20.29
53412;BMP280;39307;52.870;13.660;2023-08-30T13:39:53;100015.66;;;20.29
53412;BMP280;39307;52.870;13.660;2023-08-30T13:42:20;100016.72;;;20.28
53412;BMP280;39307;52.870;13.660;2023-08-30T13:44:46;100011.91;;;20.30
53412;BMP280;39307;52.870;13.660;2023-08-30T13:47:16;100009.53;;;20.29
53412;BMP280;39307;52.870;13.660;2023-08-30T13:49:42;100002.88;;;20.26
53412;BMP280;39307;52.870;13.660;2023-08-30T13:52:09;100006.59;;;20.21